createdAt,value
2022-10-03T00:01:25.552Z,81.10
2022-10-03T00:04:54.662Z,79.83
2022-10-03T00:08:07.480Z,78.59
2022-10-03T00:11:22.966Z,79.31
2022-10-03T00:14:35.824Z,81.51
2022-10-03T00:17:47.463Z,81.61
2022-10-03T00:21:04.005Z,81.63
2022-10-03T00:24:17.632Z,80.91
2022-10-03T00:27:31.606Z,80.16
2022-10-03T00:30:59.005Z,80.21
2022-10-03T00:34:13.057Z,79.96
2022-10-03T00:37:28.491Z,80.23
2022-10-03T00:40:41.022Z,80.12
2022-10-03T00:44:25.115Z,79.94
2022-10-03T00:47:57.094Z,80.77
2022-10-03T00:51:24.016Z,81.73
2022-10-03T00:54:44.422Z,81.93
2022-10-03T00:58:07.354Z,81.92
2022-10-03T01:01:24.673Z,80.70
2022-10-03T01:04:45.085Z,81.40
2022-10-03T01:08:08.383Z,81.91
2022-10-03T01:11:24.997Z,81.54
2022-10-03T01:14:49.222Z,81.78
2022-10-03T01:18:07.987Z,80.69
2022-10-03T01:21:19.695Z,80.22
2022-10-03T01:24:51.641Z,80.53
2022-10-03T01:28:20.841Z,77.97
2022-10-03T01:31:32.056Z,78.95
2022-10-03T01:34:43.509Z,79.08
2022-10-03T01:37:55.591Z,81.07
2022-10-03T01:41:03.195Z,80.21
2022-10-03T01:44:14.564Z,79.75
2022-10-03T01:47:27.367Z,79.78
2022-10-03T01:50:36.434Z,79.46
2022-10-03T01:54:00.035Z,79.33
2022-10-03T01:57:12.321Z,79.29
2022-10-03T02:00:18.895Z,79.77
2022-10-03T02:03:29.489Z,79.39
2022-10-03T02:06:43.374Z,79.22
2022-10-03T02:09:58.766Z,78.37
2022-10-03T02:13:09.488Z,78.72
2022-10-03T02:16:18.851Z,79.17
2022-10-03T02:19:27.342Z,77.95
2022-10-03T02:22:34.167Z,78.53
2022-10-03T02:25:55.243Z,77.81
2022-10-03T02:29:23.619Z,77.12
2022-10-03T02:32:54.653Z,78.29
2022-10-03T02:36:26.440Z,76.95
2022-10-03T02:40:17.467Z,78.00
2022-10-03T02:43:43.488Z,77.94
2022-10-03T02:47:09.635Z,78.35
2022-10-03T02:50:42.453Z,77.59
2022-10-03T02:54:08.979Z,78.30
2022-10-03T02:57:32.851Z,78.89
2022-10-03T03:01:16.151Z,78.36
2022-10-03T03:04:45.525Z,78.12
2022-10-03T03:08:15.059Z,77.87
2022-10-03T03:11:56.442Z,78.05
2022-10-03T03:15:47.528Z,78.27
2022-10-03T03:19:04.776Z,76.98
2022-10-03T03:22:21.509Z,77.40
2022-10-03T03:26:08.980Z,78.37
2022-10-03T03:29:22.575Z,78.86
2022-10-03T03:32:38.007Z,78.88
2022-10-03T03:35:55.370Z,78.76
2022-10-03T03:39:09.690Z,78.04
2022-10-03T03:42:43.208Z,78.41
2022-10-03T03:46:00.658Z,78.78
2022-10-03T03:49:24.024Z,77.56
2022-10-03T03:52:45.255Z,78.36
2022-10-03T03:56:17.516Z,79.68
2022-10-03T03:59:34.430Z,77.85
2022-10-03T04:02:53.841Z,79.36
2022-10-03T04:06:12.703Z,77.88
2022-10-03T04:09:32.140Z,78.02
2022-10-03T04:13:18.555Z,77.20
2022-10-03T04:17:02.631Z,77.45
2022-10-03T04:20:20.054Z,78.95
2022-10-03T04:23:36.663Z,78.28
2022-10-03T04:26:59.686Z,78.26
2022-10-03T04:30:10.003Z,78.42
2022-10-03T04:33:26.229Z,78.21
2022-10-03T04:36:57.138Z,77.60
2022-10-03T04:40:18.812Z,78.02
2022-10-03T04:43:34.879Z,77.83
2022-10-03T04:46:44.453Z,78.22
2022-10-03T04:49:53.717Z,77.47
2022-10-03T04:53:16.515Z,77.42
2022-10-03T04:56:34.848Z,77.49
2022-10-03T04:59:47.446Z,77.09
2022-10-03T05:03:00.433Z,78.20
2022-10-03T05:06:11.357Z,78.09
2022-10-03T05:09:24.732Z,78.49
2022-10-03T05:12:44.569Z,77.71
2022-10-03T05:15:56.295Z,78.17
2022-10-03T05:19:16.488Z,77.67
2022-10-03T05:22:28.910Z,77.34
2022-10-03T05:25:45.681Z,77.57
2022-10-03T05:28:56.904Z,77.51
2022-10-03T05:32:15.966Z,78.20
2022-10-03T05:35:35.003Z,77.27
2022-10-03T05:39:01.187Z,77.39
2022-10-03T05:42:40.472Z,77.54
2022-10-03T05:45:50.426Z,77.48
2022-10-03T05:49:03.928Z,76.96
2022-10-03T05:52:23.867Z,77.17
2022-10-03T05:55:52.417Z,76.51
2022-10-03T05:59:28.260Z,77.18
2022-10-03T06:02:53.005Z,77.55
2022-10-03T06:06:20.636Z,77.86
2022-10-03T06:09:44.060Z,76.83
2022-10-03T06:13:05.268Z,77.34
2022-10-03T06:16:24.955Z,76.96
2022-10-03T06:19:41.703Z,76.29
2022-10-03T06:23:09.095Z,77.38
2022-10-03T06:26:41.556Z,76.27
2022-10-03T06:30:05.486Z,76.54
2022-10-03T06:33:52.529Z,76.50
2022-10-03T06:37:20.681Z,76.19
2022-10-03T06:41:08.423Z,76.41
2022-10-03T06:44:29.731Z,75.66
2022-10-03T06:47:51.458Z,74.69
2022-10-03T06:51:18.670Z,75.32
2022-10-03T06:54:53.931Z,74.55
2022-10-03T06:58:30.178Z,71.67
2022-10-03T07:02:24.998Z,69.64
2022-10-03T07:05:55.001Z,69.94
2022-10-03T07:09:30.206Z,71.39
2022-10-03T07:12:59.516Z,71.00
2022-10-03T07:16:41.477Z,71.48
2022-10-03T07:20:17.415Z,73.00
2022-10-03T07:23:35.519Z,72.09
2022-10-03T07:27:10.786Z,72.34
2022-10-03T07:30:18.501Z,71.38
2022-10-03T07:33:48.385Z,71.19
2022-10-03T07:37:28.651Z,68.66
2022-10-03T07:41:12.884Z,67.82
2022-10-03T07:44:46.121Z,66.89
2022-10-03T07:48:17.305Z,67.53
2022-10-03T07:51:30.478Z,67.53
2022-10-03T07:55:02.918Z,67.61
2022-10-03T07:58:24.339Z,67.26
2022-10-03T08:01:59.916Z,67.86
2022-10-03T08:05:20.292Z,68.25
2022-10-03T08:09:08.667Z,66.23
2022-10-03T08:12:33.503Z,65.11
2022-10-03T08:15:57.127Z,64.58
2022-10-03T08:19:23.713Z,64.77
2022-10-03T08:22:45.580Z,65.52
2022-10-03T08:26:01.625Z,66.21
2022-10-03T08:29:30.477Z,65.86
2022-10-03T08:32:50.027Z,63.61
2022-10-03T08:36:30.035Z,64.35
2022-10-03T08:39:54.159Z,65.57
2022-10-03T08:43:44.185Z,64.37
2022-10-03T08:47:07.322Z,64.65
2022-10-03T08:50:24.558Z,63.13
2022-10-03T08:53:56.542Z,63.47
2022-10-03T08:57:19.055Z,63.24
2022-10-03T09:00:23.460Z,63.84
2022-10-03T09:04:05.141Z,64.25
2022-10-03T09:07:35.941Z,63.83
2022-10-03T09:11:04.864Z,63.11
2022-10-03T09:14:41.444Z,62.98
2022-10-03T09:18:29.916Z,62.67
2022-10-03T09:21:59.101Z,63.49
2022-10-03T09:25:19.744Z,61.87
2022-10-03T09:28:48.001Z,61.57
2022-10-03T09:32:29.074Z,61.64
2022-10-03T09:35:54.835Z,62.83
2022-10-03T09:39:09.678Z,60.32
2022-10-03T09:42:36.526Z,60.04
2022-10-03T09:46:15.607Z,60.19
2022-10-03T09:49:47.260Z,59.21
2022-10-03T09:53:15.693Z,59.91
2022-10-03T09:56:50.093Z,60.46
2022-10-03T10:00:03.712Z,62.24
2022-10-03T10:03:41.195Z,61.72
2022-10-03T10:07:12.507Z,61.57
2022-10-03T10:10:49.750Z,59.65
2022-10-03T10:14:16.263Z,58.70
2022-10-03T10:17:57.462Z,56.48
2022-10-03T10:21:43.446Z,55.43
2022-10-03T10:25:09.289Z,54.67
2022-10-03T10:28:48.409Z,54.73
2022-10-03T10:32:34.549Z,53.29
2022-10-03T10:36:11.749Z,52.33
2022-10-03T10:39:49.845Z,50.88
2022-10-03T10:43:24.982Z,52.97
2022-10-03T10:46:55.812Z,54.53
2022-10-03T10:50:29.622Z,55.70
2022-10-03T10:54:17.827Z,57.33
2022-10-03T10:57:40.459Z,56.53
2022-10-03T11:01:27.946Z,56.94
2022-10-03T11:05:07.314Z,57.11
2022-10-03T11:08:51.700Z,58.47
2022-10-03T11:12:34.852Z,59.61
2022-10-03T11:16:12.826Z,60.63
2022-10-03T11:19:54.178Z,60.63
2022-10-03T11:23:34.192Z,59.59
2022-10-03T11:27:38.346Z,59.52
2022-10-03T11:31:38.237Z,61.53
2022-10-03T11:35:13.131Z,61.82
2022-10-03T11:38:22.386Z,61.57
2022-10-03T11:41:40.304Z,61.77
2022-10-03T11:44:47.596Z,62.17
2022-10-03T11:48:02.709Z,61.74
2022-10-03T11:51:15.532Z,62.31
2022-10-03T11:54:31.500Z,62.15
2022-10-03T11:57:37.922Z,62.17
2022-10-03T12:00:44.762Z,62.13
2022-10-03T12:03:55.162Z,63.16
2022-10-03T12:07:30.298Z,63.62
2022-10-03T12:10:47.871Z,62.11
2022-10-03T12:14:15.005Z,61.37
2022-10-03T12:17:26.821Z,61.92
2022-10-03T12:20:41.064Z,63.22
2022-10-03T12:24:03.541Z,62.00
2022-10-03T12:27:17.091Z,59.50
2022-10-03T12:30:21.463Z,59.50
2022-10-03T12:33:42.752Z,57.98
2022-10-03T12:36:53.234Z,58.94
2022-10-03T12:40:06.011Z,59.59
2022-10-03T12:43:27.278Z,59.56
2022-10-03T12:46:40.196Z,60.05
2022-10-03T12:49:53.950Z,60.79
2022-10-03T12:53:18.494Z,60.18
2022-10-03T12:56:33.410Z,59.72
2022-10-03T12:59:42.293Z,57.88
2022-10-03T13:02:55.751Z,57.14
2022-10-03T13:06:44.573Z,57.14
2022-10-03T13:10:00.711Z,56.79
2022-10-03T13:13:21.129Z,57.04
2022-10-03T13:16:29.989Z,56.33
2022-10-03T13:19:44.621Z,55.97
2022-10-03T13:22:55.266Z,56.76
2022-10-03T13:26:12.689Z,57.66
2022-10-03T13:29:26.397Z,56.81
2022-10-03T13:32:36.106Z,56.48
2022-10-03T13:35:59.787Z,55.76
2022-10-03T13:39:16.251Z,55.26
2022-10-03T13:42:29.358Z,55.77
2022-10-03T13:45:34.542Z,56.61
2022-10-03T13:48:38.061Z,56.98
2022-10-03T13:51:52.782Z,57.80
2022-10-03T13:55:17.921Z,58.61
2022-10-03T13:58:32.684Z,58.78
2022-10-03T14:01:47.096Z,59.64
2022-10-03T14:05:08.440Z,59.53
2022-10-03T14:08:20.532Z,59.22
2022-10-03T14:11:34.825Z,60.16
2022-10-03T14:14:56.845Z,60.50
2022-10-03T14:18:13.108Z,59.36
2022-10-03T14:21:41.745Z,58.11
2022-10-03T14:24:59.069Z,57.53
2022-10-03T14:28:09.290Z,56.88
2022-10-03T14:31:20.944Z,57.14
2022-10-03T14:34:37.086Z,57.56
2022-10-03T14:37:43.747Z,58.30
2022-10-03T14:40:50.302Z,57.49
2022-10-03T14:43:55.898Z,58.16
2022-10-03T14:47:01.289Z,59.04
2022-10-03T14:50:06.820Z,59.42
2022-10-03T14:53:18.866Z,59.47
2022-10-03T14:56:24.358Z,59.62
2022-10-03T14:59:32.703Z,59.16
2022-10-03T15:02:37.730Z,59.37
2022-10-03T15:05:55.930Z,59.55
2022-10-03T15:09:02.421Z,59.23
2022-10-03T15:12:09.630Z,59.38
2022-10-03T15:15:17.838Z,59.73
2022-10-03T15:18:24.285Z,59.05
2022-10-03T15:21:29.552Z,58.97
2022-10-03T15:24:35.194Z,59.14
2022-10-03T15:27:41.820Z,60.06
2022-10-03T15:30:46.550Z,59.61
2022-10-03T15:33:54.292Z,60.57
2022-10-03T15:37:01.453Z,59.92
2022-10-03T15:40:21.943Z,61.03
2022-10-03T15:43:34.552Z,60.39
2022-10-03T15:46:44.211Z,60.99
2022-10-03T15:49:54.465Z,61.25
2022-10-03T15:53:24.216Z,61.90
2022-10-03T15:56:29.726Z,61.65
2022-10-03T15:59:35.341Z,62.57
2022-10-03T16:02:43.141Z,62.93
2022-10-03T16:06:03.779Z,62.24
2022-10-03T16:09:17.395Z,63.08
2022-10-03T16:12:48.014Z,63.66
2022-10-03T16:16:07.296Z,65.32
2022-10-03T16:19:32.626Z,67.51
2022-10-03T16:22:43.528Z,68.14
2022-10-03T16:25:51.164Z,68.40
2022-10-03T16:29:03.227Z,67.96
2022-10-03T16:32:09.342Z,67.79
2022-10-03T16:35:22.745Z,67.34
2022-10-03T16:38:27.923Z,67.37
2022-10-03T16:41:34.627Z,67.41
2022-10-03T16:44:41.677Z,67.75
2022-10-03T16:47:45.110Z,67.21
2022-10-03T16:50:52.116Z,66.98
2022-10-03T16:53:56.945Z,67.71
2022-10-03T16:57:04.153Z,68.37
2022-10-03T17:00:16.765Z,67.51
2022-10-03T17:03:22.587Z,68.02
2022-10-03T17:06:30.962Z,67.58
2022-10-03T17:09:39.773Z,67.93
2022-10-03T17:12:46.846Z,67.77
2022-10-03T17:15:54.024Z,67.92
2022-10-03T17:19:09.530Z,68.26
2022-10-03T17:22:16.930Z,68.44
2022-10-03T17:25:39.033Z,68.37
2022-10-03T17:28:47.068Z,68.47
2022-10-03T17:31:55.440Z,69.03
2022-10-03T17:35:04.373Z,69.88
2022-10-03T17:38:47.741Z,69.90
2022-10-03T17:41:51.157Z,70.61
2022-10-03T17:45:00.662Z,71.19
2022-10-03T17:48:12.959Z,71.21
2022-10-03T17:51:32.334Z,71.82
2022-10-03T17:54:39.020Z,72.31
2022-10-03T17:57:47.734Z,72.91
2022-10-03T18:01:03.788Z,73.54
2022-10-03T18:04:12.582Z,73.92
2022-10-03T18:07:18.399Z,75.54
2022-10-03T18:10:24.713Z,75.81
2022-10-03T18:13:31.016Z,75.55
2022-10-03T18:16:37.687Z,76.43
2022-10-03T18:19:54.976Z,76.59
2022-10-03T18:23:04.731Z,76.88
2022-10-03T18:26:20.004Z,77.84
2022-10-03T18:29:29.253Z,78.41
2022-10-03T18:32:38.330Z,77.97
2022-10-03T18:35:45.185Z,78.27
2022-10-03T18:38:50.659Z,79.07
2022-10-03T18:41:58.437Z,79.04
2022-10-03T18:45:02.020Z,79.04
2022-10-03T18:48:11.665Z,79.32
2022-10-03T18:51:20.079Z,79.37
2022-10-03T18:54:35.958Z,80.14
2022-10-03T18:57:44.831Z,79.70
2022-10-03T19:00:53.787Z,79.72
2022-10-03T19:04:01.820Z,80.32
2022-10-03T19:07:16.994Z,80.70
2022-10-03T19:10:31.732Z,80.11
2022-10-03T19:13:45.475Z,79.92
2022-10-03T19:17:10.534Z,80.13
2022-10-03T19:20:23.833Z,79.77
2022-10-03T19:23:30.476Z,80.73
2022-10-03T19:26:36.185Z,80.75
2022-10-03T19:29:44.412Z,81.00
2022-10-03T19:32:53.523Z,80.43
2022-10-03T19:36:04.061Z,81.19
2022-10-03T19:39:12.168Z,81.66
2022-10-03T19:42:26.010Z,81.47
2022-10-03T19:45:29.096Z,81.95
2022-10-03T19:48:35.562Z,81.44
2022-10-03T19:51:39.954Z,81.74
2022-10-03T19:54:54.554Z,81.47
2022-10-03T19:58:01.058Z,82.54
2022-10-03T20:01:08.709Z,82.70
2022-10-03T20:04:12.851Z,81.34
2022-10-03T20:07:19.980Z,81.87
2022-10-03T20:10:39.547Z,81.24
2022-10-03T20:13:48.249Z,81.64
2022-10-03T20:16:54.410Z,81.64
2022-10-03T20:20:02.400Z,82.33
2022-10-03T20:23:08.830Z,82.27
2022-10-03T20:26:19.370Z,81.99
2022-10-03T20:29:31.442Z,81.56
2022-10-03T20:32:37.368Z,81.39
2022-10-03T20:35:52.758Z,80.65
2022-10-03T20:39:16.142Z,79.86
2022-10-03T20:42:26.093Z,79.37
2022-10-03T20:45:33.356Z,80.08
2022-10-03T20:48:43.000Z,79.45
2022-10-03T20:51:57.528Z,80.53
2022-10-03T20:55:06.245Z,79.99
2022-10-03T20:58:18.698Z,80.69
2022-10-03T21:01:24.775Z,80.94
2022-10-03T21:04:32.863Z,80.34
2022-10-03T21:07:39.435Z,79.55
2022-10-03T21:10:48.359Z,80.45
2022-10-03T21:13:55.884Z,80.86
2022-10-03T21:16:59.621Z,80.04
2022-10-03T21:20:08.032Z,80.16
2022-10-03T21:23:17.327Z,80.11
2022-10-03T21:26:26.032Z,80.72
2022-10-03T21:29:30.688Z,80.73
2022-10-03T21:32:52.520Z,80.99
2022-10-03T21:35:55.665Z,81.62
2022-10-03T21:39:12.252Z,81.65
2022-10-03T21:42:24.177Z,79.78
2022-10-03T21:45:37.733Z,79.96
2022-10-03T21:48:53.960Z,80.07
2022-10-03T21:52:14.795Z,80.70
2022-10-03T21:55:51.298Z,81.09
2022-10-03T21:59:14.519Z,80.69
2022-10-03T22:02:26.851Z,81.06
2022-10-03T22:05:40.353Z,80.25
2022-10-03T22:08:47.555Z,81.15
2022-10-03T22:11:56.453Z,81.77
2022-10-03T22:15:09.034Z,80.56
2022-10-03T22:18:14.056Z,79.91
2022-10-03T22:21:26.779Z,80.17
2022-10-03T22:24:39.794Z,80.61
2022-10-03T22:27:50.165Z,80.87
2022-10-03T22:31:04.469Z,81.49
2022-10-03T22:34:26.961Z,79.22
2022-10-03T22:37:30.038Z,79.70
2022-10-03T22:40:33.929Z,80.70
2022-10-03T22:43:38.384Z,79.93
2022-10-03T22:46:47.813Z,80.49
2022-10-03T22:49:58.596Z,79.89
2022-10-03T22:53:03.726Z,80.20
2022-10-03T22:56:40.833Z,80.22
2022-10-03T22:59:48.851Z,80.58
2022-10-03T23:03:00.075Z,80.50
2022-10-03T23:06:29.758Z,80.76
2022-10-03T23:09:39.491Z,80.17
2022-10-03T23:12:45.932Z,80.67
2022-10-03T23:15:52.104Z,79.67
2022-10-03T23:19:13.157Z,81.16
2022-10-03T23:22:18.363Z,81.33
2022-10-03T23:25:27.965Z,81.19
2022-10-03T23:28:41.023Z,79.58
2022-10-03T23:31:53.453Z,80.89
2022-10-03T23:35:16.712Z,81.04
2022-10-03T23:38:59.448Z,79.01
2022-10-03T23:42:09.716Z,80.10
2022-10-03T23:45:16.580Z,80.00
2022-10-03T23:48:23.460Z,78.89
2022-10-03T23:51:32.829Z,79.56
2022-10-03T23:54:35.466Z,78.71
2022-10-03T23:57:42.927Z,77.98
